Time;durP1;ratioP1;P1;durP2;ratioP2;P2;SDS_P1;SDS_P2;PMS_P1;PMS_P2;Temp;Humidity;BMP_temperature;BMP_pressure;BME280_temperature;BME280_humidity;BME280_pressure;Samples;Min_cycle;Max_cycle;Signal;HPM_P1;HPM_P2
2021/09/03 00:01:00;;;;;;;15.13;5.25;;;25.80;71.80;;;;;;5033038;28;20021;-71
2021/09/03 00:03:26;;;;;;;11.13;5.18;;;25.80;71.50;;;;;;5033287;28;20037;-72
2021/09/03 00:05:52;;;;;;;10.98;4.57;;;25.80;71.00;;;;;;5032587;28;20491;-71
2021/09/03 00:08:18;;;;;;;12.68;4.68;;;25.80;70.90;;;;;;5032977;28;20021;-72
2021/09/03 00:10:43;;;;;;;11.70;4.63;;;25.70;70.30;;;;;;5032757;28;20449;-73
2021/09/03 00:13:09;;;;;;;10.75;4.65;;;25.70;70.50;;;;;;5033086;28;20030;-71
2021/09/03 00:15:35;;;;;;;11.00;4.22;;;25.70;70.10;;;;;;5032820;28;20032;-73
2021/09/03 00:18:02;;;;;;;9.50;3.95;;;25.70;70.10;;;;;;5032729;28;20029;-71
2021/09/03 00:20:29;;;;;;;13.40;4.30;;;25.60;69.70;;;;;;5033008;28;20360;-72
2021/09/03 00:22:55;;;;;;;11.93;4.53;;;25.60;69.80;;;;;;5032946;28;20028;-72
2021/09/03 00:25:21;;;;;;;8.50;4.13;;;25.60;69.60;;;;;;5033189;28;20108;-73
2021/09/03 00:27:46;;;;;;;12.63;4.53;;;25.60;69.50;;;;;;5015267;28;20077;-71
2021/09/03 00:30:13;;;;;;;9.77;4.15;;;25.50;69.40;;;;;;5032610;28;20064;-73
2021/09/03 00:32:39;;;;;;;9.30;4.63;;;25.50;69.50;;;;;;5032753;28;20040;-72
2021/09/03 00:35:07;;;;;;;11.93;4.50;;;25.50;69.70;;;;;;5032544;28;20026;-74
2021/09/03 00:37:33;;;;;;;8.88;4.20;;;25.50;69.10;;;;;;5032910;28;20025;-75
2021/09/03 00:39:59;;;;;;;9.18;4.32;;;25.40;69.20;;;;;;5032572;28;20032;-75
2021/09/03 00:42:25;;;;;;;9.32;4.25;;;25.40;68.80;;;;;;5032752;28;20030;-74
2021/09/03 00:44:51;;;;;;;8.52;4.07;;;25.40;69.20;;;;;;5035256;28;20032;-73
2021/09/03 00:47:17;;;;;;;8.57;4.15;;;25.40;69.10;;;;;;5036342;28;20021;-70
2021/09/03 00:49:43;;;;;;;9.25;4.47;;;25.40;68.90;;;;;;5036262;28;20374;-71
2021/09/03 00:52:10;;;;;;;8.57;4.22;;;25.40;68.80;;;;;;5036381;28;20401;-72
2021/09/03 00:54:36;;;;;;;11.05;4.75;;;25.40;68.90;;;;;;5036284;28;20029;-72
2021/09/03 00:57:03;;;;;;;9.32;4.13;;;25.40;69.10;;;;;;5036002;28;20058;-71
2021/09/03 00:59:29;;;;;;;11.48;4.55;;;25.40;68.60;;;;;;5036265;28;20045;-71
2021/09/03 01:01:54;;;;;;;12.57;4.05;;;25.40;68.70;;;;;;5035947;28;20475;-72
2021/09/03 01:04:20;;;;;;;9.50;4.07;;;25.40;68.30;;;;;;5036021;28;20053;-72
2021/09/03 01:06:46;;;;;;;9.10;4.50;;;25.40;68.40;;;;;;5036066;28;20053;-72
2021/09/03 01:09:12;;;;;;;8.00;4.20;;;25.50;68.40;;;;;;5036346;28;20025;-73
2021/09/03 01:11:38;;;;;;;9.23;4.43;;;25.50;68.20;;;;;;5036092;28;20078;-72
2021/09/03 01:14:03;;;;;;;10.18;3.70;;;25.40;68.20;;;;;;5036142;28;20108;-73
2021/09/03 01:16:29;;;;;;;13.13;4.22;;;25.30;68.10;;;;;;5035832;28;20060;-72
2021/09/03 01:18:55;;;;;;;7.90;4.03;;;25.30;68.20;;;;;;5035736;28;20100;-72
2021/09/03 01:21:21;;;;;;;12.20;3.67;;;25.30;68.10;;;;;;5035923;28;20032;-72
2021/09/03 01:23:47;;;;;;;8.55;3.55;;;25.30;68.10;;;;;;5035607;28;20037;-71
2021/09/03 01:26:13;;;;;;;9.32;4.05;;;25.30;68.00;;;;;;5035525;28;20498;-72
2021/09/03 01:28:39;;;;;;;10.40;3.80;;;25.20;67.90;;;;;;5035637;28;20037;-72
2021/09/03 01:31:05;;;;;;;10.15;3.80;;;25.20;67.90;;;;;;5035508;28;20065;-71
2021/09/03 01:33:31;;;;;;;7.63;3.75;;;25.20;67.80;;;;;;5035676;28;20021;-71
2021/09/03 01:35:57;;;;;;;9.05;4.20;;;25.20;67.70;;;;;;5035489;28;20374;-72
2021/09/03 01:38:22;;;;;;;7.05;3.60;;;25.10;67.90;;;;;;5035361;28;20390;-71
2021/09/03 01:40:49;;;;;;;8.32;4.25;;;25.10;67.90;;;;;;5035315;28;20053;-71
2021/09/03 01:43:15;;;;;;;10.70;3.88;;;25.00;67.80;;;;;;5035326;28;20021;-72
2021/09/03 01:45:41;;;;;;;9.32;4.03;;;25.00;67.50;;;;;;5035385;28;20047;-71
2021/09/03 01:48:07;;;;;;;7.97;4.50;;;25.10;67.80;;;;;;5035060;28;20026;-71
2021/09/03 01:50:33;;;;;;;10.13;3.80;;;25.10;67.60;;;;;;5035274;28;20052;-72
2021/09/03 01:52:58;;;;;;;9.65;3.78;;;25.10;67.70;;;;;;5035129;28;20029;-71
2021/09/03 01:55:24;;;;;;;9.10;4.30;;;25.10;67.90;;;;;;5034655;28;20017;-72
2021/09/03 01:57:50;;;;;;;6.80;3.72;;;25.00;67.80;;;;;;5035293;28;20092;-70
2021/09/03 02:00:16;;;;;;;10.15;4.00;;;25.00;68.20;;;;;;5035105;28;20525;-70
2021/09/03 02:02:42;;;;;;;10.30;4.20;;;25.10;68.00;;;;;;5034961;28;20486;-71
2021/09/03 02:05:09;;;;;;;7.05;4.18;;;25.10;68.20;;;;;;5034667;28;20040;-72
2021/09/03 02:07:35;;;;;;;10.05;4.22;;;25.10;68.00;;;;;;5034774;28;20044;-72
2021/09/03 02:10:03;;;;;;;7.85;3.97;;;25.10;68.20;;;;;;5034912;28;20033;-70
2021/09/03 02:12:29;;;;;;;11.68;4.28;;;25.10;68.30;;;;;;5034908;28;20068;-70
2021/09/03 02:14:55;;;;;;;15.45;5.13;;;25.10;68.20;;;;;;5034842;28;20045;-71
2021/09/03 02:17:20;;;;;;;8.43;4.07;;;25.10;68.50;;;;;;5034654;28;20474;-70
2021/09/03 02:19:47;;;;;;;12.13;4.38;;;25.10;68.20;;;;;;5035062;28;20091;-74
2021/09/03 02:22:12;;;;;;;8.55;4.70;;;25.10;68.50;;;;;;5016749;28;20061;-71
2021/09/03 02:24:38;;;;;;;9.30;4.68;;;25.20;68.50;;;;;;5034342;28;20064;-72
2021/09/03 02:27:04;;;;;;;10.98;4.68;;;25.10;68.90;;;;;;5034393;28;20387;-71
2021/09/03 02:29:30;;;;;;;6.97;4.40;;;25.00;69.30;;;;;;5034456;28;20360;-71
2021/09/03 02:31:56;;;;;;;8.93;4.93;;;25.00;69.40;;;;;;5016618;28;20041;-71
2021/09/03 02:34:23;;;;;;;15.40;4.82;;;25.00;69.90;;;;;;5034042;28;20163;-70
2021/09/03 02:36:49;;;;;;;9.02;4.72;;;25.00;70.70;;;;;;5034504;28;20025;-72
2021/09/03 02:39:15;;;;;;;8.52;4.80;;;25.00;70.40;;;;;;5034400;28;20014;-70
2021/09/03 02:41:40;;;;;;;11.27;4.43;;;24.90;70.80;;;;;;5016222;28;20421;-71
2021/09/03 02:44:06;;;;;;;14.43;5.47;;;24.90;71.10;;;;;;5033558;28;20072;-71
2021/09/03 02:46:32;;;;;;;11.32;5.75;;;24.80;71.30;;;;;;5034095;28;20060;-71
2021/09/03 02:48:58;;;;;;;14.35;5.07;;;24.80;71.70;;;;;;5034137;28;20014;-70
2021/09/03 02:51:24;;;;;;;10.48;4.32;;;24.80;71.80;;;;;;5034166;28;20103;-71
2021/09/03 02:53:49;;;;;;;9.73;4.40;;;24.70;71.90;;;;;;5033666;28;20021;-71
2021/09/03 02:56:15;;;;;;;10.90;5.20;;;24.80;72.20;;;;;;5033946;28;20064;-71
2021/09/03 02:58:41;;;;;;;9.98;4.60;;;24.80;72.00;;;;;;5034028;28;20095;-70
2021/09/03 03:01:07;;;;;;;9.68;4.20;;;24.70;72.10;;;;;;5034235;28;20029;-71
2021/09/03 03:03:32;;;;;;;11.02;4.40;;;24.70;72.10;;;;;;5033466;28;20025;-72
2021/09/03 03:05:58;;;;;;;12.75;4.22;;;24.70;72.40;;;;;;5033025;28;20486;-70
2021/09/03 03:08:24;;;;;;;10.38;4.38;;;24.60;72.40;;;;;;5033567;28;20064;-71
2021/09/03 03:10:50;;;;;;;13.50;4.22;;;24.60;72.30;;;;;;5033353;28;20463;-72
2021/09/03 03:13:20;;;;;;;8.27;4.35;;;24.60;72.30;;;;;;5033600;28;20055;-70
2021/09/03 03:15:50;;;;;;;11.07;4.88;;;24.60;72.30;;;;;;5033690;28;20102;-70
2021/09/03 03:18:16;;;;;;;7.55;4.82;;;24.50;70.40;;;;;;5033541;28;20025;-71
2021/09/03 03:20:43;;;;;;;10.55;4.85;;;24.50;71.20;;;;;;5033596;28;20405;-71
2021/09/03 03:23:09;;;;;;;7.80;4.72;;;24.50;71.90;;;;;;5033692;28;20532;-71
2021/09/03 03:25:35;;;;;;;6.95;4.25;;;24.50;70.90;;;;;;5033478;28;20053;-70
2021/09/03 03:28:01;;;;;;;13.95;4.63;;;24.50;70.60;;;;;;5015972;28;20044;-70
2021/09/03 03:30:26;;;;;;;10.23;4.05;;;24.50;70.00;;;;;;5033525;28;20022;-70
2021/09/03 03:32:52;;;;;;;9.15;4.22;;;24.50;70.20;;;;;;5033327;28;20044;-69
2021/09/03 03:35:18;;;;;;;9.27;4.35;;;24.50;69.70;;;;;;5033509;28;20035;-72
2021/09/03 03:37:44;;;;;;;8.60;3.75;;;24.50;69.50;;;;;;5033500;28;20033;-71
2021/09/03 03:40:10;;;;;;;12.68;3.70;;;24.50;68.70;;;;;;5033214;28;20048;-70
2021/09/03 03:42:36;;;;;;;9.52;3.70;;;24.50;67.70;;;;;;5033355;28;20356;-71
2021/09/03 03:45:02;;;;;;;5.47;3.20;;;24.40;65.90;;;;;;5032843;28;20028;-71
2021/09/03 03:47:27;;;;;;;5.53;3.20;;;24.40;65.20;;;;;;5033083;28;20025;-71
2021/09/03 03:49:53;;;;;;;8.60;3.10;;;24.30;63.80;;;;;;5033170;28;20097;-69
2021/09/03 03:52:19;;;;;;;8.18;3.50;;;24.30;63.10;;;;;;5033257;28;20075;-71
2021/09/03 03:54:44;;;;;;;7.85;2.97;;;24.30;62.20;;;;;;5032938;28;20030;-71
2021/09/03 03:57:10;;;;;;;12.90;3.47;;;24.20;60.90;;;;;;5032973;28;20048;-71
2021/09/03 03:59:36;;;;;;;7.60;4.00;;;24.20;60.50;;;;;;5033206;28;20071;-71
2021/09/03 04:02:02;;;;;;;11.38;3.88;;;24.20;60.10;;;;;;5033139;28;20029;-72
2021/09/03 04:04:27;;;;;;;5.97;3.15;;;24.10;59.50;;;;;;5033079;28;20041;-71
2021/09/03 04:06:53;;;;;;;8.50;3.22;;;24.10;59.10;;;;;;5032318;28;20057;-72
2021/09/03 04:09:19;;;;;;;8.35;3.58;;;24.10;59.30;;;;;;5032804;28;20055;-72
2021/09/03 04:11:47;;;;;;;6.63;3.80;;;24.10;58.70;;;;;;5032870;28;20463;-70
2021/09/03 04:14:12;;;;;;;6.18;3.22;;;24.10;58.80;;;;;;5033124;28;20037;-71
2021/09/03 04:16:38;;;;;;;8.45;3.22;;;24.00;58.40;;;;;;5033146;28;20017;-71
2021/09/03 04:19:04;;;;;;;5.63;3.15;;;24.00;58.00;;;;;;5034070;28;20053;-73
2021/09/03 04:21:30;;;;;;;8.48;3.30;;;24.10;57.90;;;;;;5037329;28;20018;-73
2021/09/03 04:23:56;;;;;;;6.28;3.10;;;24.00;57.70;;;;;;5036801;28;20029;-72
2021/09/03 04:26:21;;;;;;;7.57;3.17;;;24.00;57.50;;;;;;5036596;28;20030;-71
2021/09/03 04:28:47;;;;;;;8.35;3.28;;;24.00;57.60;;;;;;5036285;28;20063;-74
2021/09/03 04:31:13;;;;;;;7.38;3.03;;;23.90;57.60;;;;;;5036556;28;20108;-73
2021/09/03 04:33:39;;;;;;;7.50;3.35;;;23.90;57.90;;;;;;5036787;28;20112;-71
2021/09/03 04:36:05;;;;;;;7.53;3.83;;;23.80;57.40;;;;;;5036659;28;20045;-79
2021/09/03 04:38:31;;;;;;;5.50;3.28;;;23.80;57.50;;;;;;5036608;28;20459;-72
2021/09/03 04:40:57;;;;;;;7.95;3.45;;;23.80;57.30;;;;;;5018847;28;20064;-75
2021/09/03 04:43:26;;;;;;;6.80;3.05;;;23.80;57.20;;;;;;5036464;28;20030;-72
2021/09/03 04:45:51;;;;;;;7.57;3.50;;;23.90;57.20;;;;;;5036518;28;20080;-73
2021/09/03 04:48:17;;;;;;;7.72;3.35;;;23.90;57.10;;;;;;5036294;28;20340;-77
2021/09/03 04:50:43;;;;;;;7.82;4.07;;;23.80;57.20;;;;;;5036377;28;20032;-72
2021/09/03 04:53:09;;;;;;;9.48;4.22;;;23.90;57.10;;;;;;5036234;28;20466;-72
2021/09/03 04:55:34;;;;;;;6.68;3.88;;;23.90;56.70;;;;;;5036327;28;20026;-71
2021/09/03 04:58:00;;;;;;;10.02;3.50;;;23.80;56.70;;;;;;5036055;28;20036;-74
2021/09/03 05:00:27;;;;;;;6.03;3.05;;;23.80;56.40;;;;;;5038139;28;20041;-70
2021/09/03 05:02:55;;;;;;;8.48;3.35;;;23.80;57.10;;;;;;5039902;28;20021;-73
2021/09/03 05:05:21;;;;;;;8.25;3.20;;;23.80;55.90;;;;;;5036104;28;20033;-72
2021/09/03 05:07:47;;;;;;;10.05;3.72;;;23.80;55.80;;;;;;5018717;28;20100;-71
2021/09/03 05:10:13;;;;;;;6.50;3.45;;;23.80;55.50;;;;;;5036916;28;20029;-71
2021/09/03 05:12:40;;;;;;;6.43;3.50;;;23.80;55.20;;;;;;5018282;28;20026;-74
2021/09/03 05:15:11;;;;;;;6.30;3.30;;;23.70;54.80;;;;;;5036211;28;20010;-77
2021/09/03 05:17:39;;;;;;;10.50;3.40;;;23.70;55.10;;;;;;5018979;28;20049;-71
2021/09/03 05:20:06;;;;;;;7.50;3.13;;;23.70;55.30;;;;;;5038286;28;20021;-72
2021/09/03 05:22:34;;;;;;;9.00;3.53;;;23.70;55.10;;;;;;5051883;28;20483;-71
2021/09/03 05:25:05;;;;;;;6.68;3.67;;;23.80;54.00;;;;;;5041306;28;20051;-73
2021/09/03 05:27:32;;;;;;;9.27;3.42;;;23.80;55.20;;;;;;5055269;28;20025;-71
2021/09/03 05:29:57;;;;;;;11.75;3.55;;;23.80;54.50;;;;;;5027341;28;20173;-71
2021/09/03 05:32:23;;;;;;;6.72;3.22;;;23.80;54.10;;;;;;5023930;28;20112;-75
2021/09/03 05:34:49;;;;;;;9.63;3.63;;;23.80;53.30;;;;;;5039868;28;20029;-70
2021/09/03 05:37:15;;;;;;;7.78;4.20;;;23.70;53.40;;;;;;5035585;28;20458;-70
2021/09/03 05:39:40;;;;;;;11.27;8.05;;;23.80;53.80;;;;;;5035464;28;20013;-68
2021/09/03 05:42:07;;;;;;;8.90;4.20;;;23.90;53.30;;;;;;5035204;28;20069;-69
2021/09/03 05:44:32;;;;;;;11.13;3.50;;;23.90;53.30;;;;;;5035503;28;20328;-69
2021/09/03 05:46:58;;;;;;;8.48;3.80;;;23.90;52.80;;;;;;5034810;28;20443;-70
2021/09/03 05:49:24;;;;;;;10.85;4.05;;;23.80;53.50;;;;;;5020033;28;20496;-71
2021/09/03 05:51:50;;;;;;;7.53;3.60;;;23.90;53.20;;;;;;5045982;28;20123;-69
2021/09/03 05:54:15;;;;;;;8.85;3.72;;;23.80;53.10;;;;;;5046431;28;20009;-72
2021/09/03 05:56:41;;;;;;;10.38;3.65;;;23.80;53.00;;;;;;5045471;28;20104;-71
2021/09/03 05:59:07;;;;;;;7.75;3.45;;;23.70;53.30;;;;;;5052711;28;20025;-72
2021/09/03 06:01:33;;;;;;;6.38;3.55;;;23.70;53.30;;;;;;5049761;28;20124;-71
2021/09/03 06:03:59;;;;;;;9.05;3.78;;;23.70;53.20;;;;;;5041752;28;20021;-68
2021/09/03 06:06:24;;;;;;;15.07;4.93;;;23.70;54.10;;;;;;5030334;28;20048;-71
2021/09/03 06:08:52;;;;;;;13.90;4.22;;;23.80;53.40;;;;;;5032549;28;20116;-71
2021/09/03 06:11:25;;;;;;;11.52;3.70;;;23.80;53.50;;;;;;5034100;28;20091;-68
2021/09/03 06:13:52;;;;;;;11.23;3.80;;;23.80;53.20;;;;;;5016953;28;20037;-69
2021/09/03 06:16:18;;;;;;;8.77;3.90;;;23.80;53.20;;;;;;5028868;28;20478;-69
2021/09/03 06:18:44;;;;;;;7.00;4.40;;;23.80;54.40;;;;;;5038864;28;20070;-70
2021/09/03 06:21:09;;;;;;;12.27;5.82;;;23.80;54.20;;;;;;5031495;28;20033;-69
2021/09/03 06:23:35;;;;;;;8.50;4.10;;;23.90;53.40;;;;;;5023358;28;20025;-70
2021/09/03 06:26:01;;;;;;;9.20;3.92;;;23.80;53.20;;;;;;5053890;28;20036;-71
2021/09/03 06:28:26;;;;;;;9.10;3.80;;;23.90;53.40;;;;;;5054318;28;20025;-70
2021/09/03 06:30:52;;;;;;;9.48;3.80;;;23.80;53.20;;;;;;5046497;28;20020;-70
2021/09/03 06:33:18;;;;;;;10.23;4.30;;;23.80;53.60;;;;;;5053157;28;20083;-72
2021/09/03 06:35:43;;;;;;;9.30;3.50;;;23.80;53.70;;;;;;5035908;28;20022;-70
2021/09/03 06:38:09;;;;;;;12.38;3.95;;;23.90;53.40;;;;;;5034873;28;20030;-70
2021/09/03 06:40:35;;;;;;;12.95;4.65;;;23.90;53.40;;;;;;5035126;28;20010;-72
2021/09/03 06:43:00;;;;;;;11.20;3.60;;;23.90;53.60;;;;;;5044714;28;20380;-70
2021/09/03 06:45:26;;;;;;;9.85;3.83;;;23.90;53.10;;;;;;5032008;28;20031;-70
2021/09/03 06:47:52;;;;;;;10.25;4.30;;;23.80;53.10;;;;;;5039960;28;20033;-70
2021/09/03 06:50:18;;;;;;;12.80;4.07;;;23.90;53.20;;;;;;5036040;28;20052;-71
2021/09/03 06:52:44;;;;;;;10.73;3.92;;;23.90;53.10;;;;;;5040133;28;20223;-71
2021/09/03 06:55:13;;;;;;;11.07;3.90;;;23.90;52.90;;;;;;5033261;28;20462;-71
2021/09/03 06:57:39;;;;;;;10.23;4.25;;;23.90;53.30;;;;;;5034037;28;20041;-70
2021/09/03 07:00:07;;;;;;;13.65;4.72;;;23.90;52.80;;;;;;5040071;28;20119;-72
2021/09/03 07:02:33;;;;;;;8.88;4.32;;;23.90;53.10;;;;;;5036650;28;20112;-68
2021/09/03 07:04:59;;;;;;;8.07;3.72;;;23.90;53.00;;;;;;5037985;28;20101;-74
2021/09/03 07:07:24;;;;;;;7.85;4.40;;;23.80;53.00;;;;;;5043899;28;20079;-71
2021/09/03 07:09:50;;;;;;;13.85;4.75;;;23.80;53.40;;;;;;5038776;28;20025;-69
2021/09/03 07:12:18;;;;;;;10.02;4.35;;;23.80;53.60;;;;;;5042721;28;20520;-70
2021/09/03 07:14:44;;;;;;;17.35;5.20;;;23.90;53.60;;;;;;5051479;28;20021;-70
2021/09/03 07:17:10;;;;;;;8.15;4.57;;;23.90;53.80;;;;;;5047703;28;20104;-69
2021/09/03 07:19:36;;;;;;;10.75;4.30;;;23.90;54.10;;;;;;5034613;28;20071;-69
2021/09/03 07:22:03;;;;;;;8.15;4.18;;;23.90;53.50;;;;;;5023552;28;20478;-69
2021/09/03 07:24:29;;;;;;;9.73;3.85;;;23.90;53.70;;;;;;5037245;28;20040;-68
2021/09/03 07:26:55;;;;;;;13.75;4.47;;;23.90;53.60;;;;;;5031765;28;20087;-68
2021/09/03 07:29:21;;;;;;;11.10;4.97;;;24.00;53.90;;;;;;5045679;28;20037;-69
2021/09/03 07:31:53;;;;;;;15.05;4.72;;;24.00;53.80;;;;;;5021135;28;20111;-68
2021/09/03 07:34:19;;;;;;;14.80;4.90;;;24.10;54.20;;;;;;5030665;28;20021;-69
2021/09/03 07:36:45;;;;;;;18.45;5.25;;;24.10;53.90;;;;;;5038045;28;20599;-68
2021/09/03 07:39:12;;;;;;;15.27;6.28;;;24.20;54.00;;;;;;5039904;28;20113;-68
2021/09/03 07:41:38;;;;;;;14.27;5.13;;;24.20;54.00;;;;;;5030264;28;20048;-68
2021/09/03 07:44:03;;;;;;;13.63;4.80;;;24.30;54.60;;;;;;5029726;28;20423;-70
2021/09/03 07:46:29;;;;;;;14.88;5.13;;;24.20;53.80;;;;;;5029913;28;20045;-68
2021/09/03 07:48:56;;;;;;;9.30;4.68;;;24.20;53.80;;;;;;5032995;28;20414;-70
2021/09/03 07:51:22;;;;;;;10.48;4.38;;;24.20;53.70;;;;;;5049921;28;20025;-70
2021/09/03 07:53:50;;;;;;;10.55;4.72;;;24.20;53.40;;;;;;5046582;28;20413;-68
2021/09/03 07:56:16;;;;;;;9.43;4.35;;;24.20;53.50;;;;;;5050722;28;20037;-69
2021/09/03 07:58:42;;;;;;;10.50;4.43;;;24.20;54.20;;;;;;5041445;28;20122;-68
2021/09/03 08:01:09;;;;;;;9.25;4.43;;;24.20;53.60;;;;;;5015217;28;20060;-69
2021/09/03 08:03:35;;;;;;;9.40;4.47;;;24.30;54.30;;;;;;5036883;28;20059;-67
2021/09/03 08:06:02;;;;;;;12.18;4.47;;;24.30;54.10;;;;;;5035939;28;20105;-69
2021/09/03 08:08:27;;;;;;;14.73;4.72;;;24.40;54.20;;;;;;5034685;28;20061;-69
2021/09/03 08:10:53;;;;;;;13.65;4.75;;;24.40;53.60;;;;;;5035461;28;20099;-70
2021/09/03 08:13:19;;;;;;;16.20;5.03;;;24.50;53.90;;;;;;5039670;28;20044;-69
2021/09/03 08:15:44;;;;;;;9.23;3.70;;;24.50;53.00;;;;;;5033617;28;20029;-69
2021/09/03 08:18:11;;;;;;;13.65;5.47;;;24.60;52.90;;;;;;5021280;28;20495;-71
2021/09/03 08:20:37;;;;;;;13.20;4.10;;;24.60;52.90;;;;;;5039713;28;20096;-68
2021/09/03 08:23:04;;;;;;;11.98;4.40;;;24.70;52.90;;;;;;5035267;28;20521;-74
2021/09/03 08:25:30;;;;;;;9.10;4.00;;;24.70;52.40;;;;;;5033975;28;20601;-70
2021/09/03 08:27:57;;;;;;;13.05;4.40;;;24.80;52.90;;;;;;5040775;28;20107;-73
2021/09/03 08:30:23;;;;;;;13.75;4.82;;;24.80;53.70;;;;;;5034637;28;20029;-78
2021/09/03 08:32:49;;;;;;;14.77;4.25;;;24.80;52.70;;;;;;5050609;28;20040;-68
2021/09/03 08:35:15;;;;;;;24.80;5.50;;;24.90;53.80;;;;;;5058861;28;20021;-73
2021/09/03 08:37:41;;;;;;;15.38;5.03;;;24.90;52.60;;;;;;5050326;28;20032;-75
2021/09/03 08:40:10;;;;;;;10.13;5.00;;;25.00;52.20;;;;;;5014697;28;20446;-72
2021/09/03 08:42:41;;;;;;;11.07;4.38;;;25.10;52.50;;;;;;5032378;28;20124;-75
2021/09/03 08:45:10;;;;;;;11.05;4.60;;;25.10;52.00;;;;;;5031585;28;20100;-75
2021/09/03 08:47:42;;;;;;;18.40;4.65;;;25.20;52.10;;;;;;5014584;28;20550;-72
2021/09/03 08:50:11;;;;;;;15.95;4.60;;;25.30;53.50;;;;;;5038330;28;20029;-73
2021/09/03 08:52:43;;;;;;;14.48;5.18;;;25.40;52.50;;;;;;5043768;28;20029;-76
2021/09/03 08:55:09;;;;;;;10.77;4.45;;;25.40;51.50;;;;;;5045286;28;20482;-78
2021/09/03 08:57:36;;;;;;;8.80;4.47;;;25.50;51.80;;;;;;5036360;28;20025;-74
2021/09/03 09:00:35;;;;;;;13.23;4.85;;;25.50;51.90;;;;;;5052253;28;20021;-75
2021/09/03 09:03:10;;;;;;;12.75;5.18;;;25.60;52.60;;;;;;4980204;28;20034;-67
2021/09/03 09:05:59;;;;;;;20.33;5.38;;;25.60;52.30;;;;;;5036082;28;20021;-69
2021/09/03 09:08:27;;;;;;;13.32;5.75;;;25.70;53.90;;;;;;5043397;28;20037;-69
2021/09/03 09:10:56;;;;;;;12.40;4.70;;;25.80;53.80;;;;;;5042025;28;20119;-71
2021/09/03 09:13:26;;;;;;;11.80;4.97;;;25.80;51.70;;;;;;5044820;28;20029;-71
2021/09/03 09:16:15;;;;;;;11.85;4.95;;;25.90;52.20;;;;;;5039984;28;20108;-71
2021/09/03 09:18:48;;;;;;;17.55;6.35;;;26.00;53.90;;;;;;5040189;28;20033;-72
2021/09/03 09:21:29;;;;;;;13.45;5.65;;;26.10;53.30;;;;;;5049914;28;20036;-68
2021/09/03 09:23:59;;;;;;;10.55;4.53;;;26.10;51.80;;;;;;5034381;28;20079;-75
2021/09/03 09:26:35;;;;;;;14.95;6.07;;;26.20;53.50;;;;;;5046516;28;20029;-75
2021/09/03 09:29:15;;;;;;;18.45;7.28;;;26.20;53.80;;;;;;5027179;28;20025;-76
2021/09/03 09:31:40;;;;;;;11.93;6.50;;;26.40;52.00;;;;;;5030307;28;20501;-73
2021/09/03 09:34:21;;;;;;;12.40;5.72;;;26.50;52.50;;;;;;5040831;28;20038;-68
2021/09/03 09:36:50;;;;;;;10.38;5.72;;;26.50;52.00;;;;;;5040814;28;20473;-67
2021/09/03 09:39:16;;;;;;;11.85;5.40;;;26.50;52.20;;;;;;5055127;28;20035;-75
2021/09/03 09:41:44;;;;;;;22.52;14.00;;;26.60;52.40;;;;;;5044476;28;20099;-70
2021/09/03 09:44:10;;;;;;;10.20;6.22;;;26.60;52.00;;;;;;5043529;28;20030;-68
2021/09/03 09:46:36;;;;;;;13.93;5.85;;;26.70;52.30;;;;;;5034451;28;20112;-76
2021/09/03 09:49:08;;;;;;;9.35;5.13;;;26.70;52.30;;;;;;5034641;28;20128;-73
2021/09/03 09:51:44;;;;;;;12.88;5.10;;;26.80;52.10;;;;;;5034654;28;20038;-68
2021/09/03 09:54:14;;;;;;;17.50;5.65;;;26.80;51.90;;;;;;5016795;28;20032;-68
2021/09/03 09:56:52;;;;;;;16.75;6.22;;;26.80;52.10;;;;;;5034538;28;20055;-71
2021/09/03 09:59:20;;;;;;;16.65;6.38;;;27.00;53.40;;;;;;5034511;28;20022;-70
2021/09/03 10:01:48;;;;;;;12.38;5.72;;;27.00;51.90;;;;;;5034746;28;20040;-72
2021/09/03 10:04:19;;;;;;;13.63;7.15;;;27.00;51.60;;;;;;5044661;28;20489;-70
2021/09/03 10:06:46;;;;;;;12.02;7.30;;;27.10;51.90;;;;;;5054026;28;20060;-73
2021/09/03 10:09:15;;;;;;;11.82;6.22;;;27.10;51.80;;;;;;5054325;28;20013;-69
2021/09/03 10:11:43;;;;;;;16.75;7.10;;;27.10;51.70;;;;;;5054437;28;20401;-69
2021/09/03 10:14:12;;;;;;;12.48;5.63;;;27.10;51.70;;;;;;5054291;28;20127;-70
2021/09/03 10:16:37;;;;;;;21.08;6.47;;;27.10;51.70;;;;;;5053293;28;20036;-69
2021/09/03 10:19:08;;;;;;;13.27;5.82;;;27.10;51.80;;;;;;5023960;28;20406;-70
2021/09/03 10:21:37;;;;;;;18.10;6.93;;;27.20;51.60;;;;;;5049889;28;20029;-72
2021/09/03 10:24:10;;;;;;;11.48;5.82;;;27.20;51.80;;;;;;5036054;28;20357;-70
2021/09/03 10:26:42;;;;;;;13.75;6.20;;;27.30;52.60;;;;;;5047705;28;20112;-70
2021/09/03 10:29:17;;;;;;;19.17;7.03;;;27.30;51.20;;;;;;5038018;28;20025;-68
2021/09/03 10:32:08;;;;;;;16.17;8.20;;;27.30;52.60;;;;;;5037640;28;20025;-71
2021/09/03 10:34:51;;;;;;;13.52;6.38;;;27.40;52.50;;;;;;5039318;28;20025;-70
2021/09/03 10:37:20;;;;;;;8.80;4.88;;;27.50;52.60;;;;;;5054458;28;20074;-70
2021/09/03 10:40:04;;;;;;;12.75;6.03;;;27.50;51.50;;;;;;5036312;28;20029;-72
2021/09/03 10:45:28;;;;;;;11.82;4.75;;;27.60;52.10;;;;;;5033834;28;20076;-73
2021/09/03 10:48:03;;;;;;;13.75;6.00;;;27.70;52.00;;;;;;5039448;28;20021;-70
2021/09/03 10:50:44;;;;;;;13.05;5.78;;;27.80;52.00;;;;;;5036283;28;20025;-72
2021/09/03 10:53:10;;;;;;;18.45;5.72;;;27.90;51.50;;;;;;5035010;28;20029;-74
2021/09/03 10:55:58;;;;;;;15.02;4.93;;;27.90;51.00;;;;;;5034421;28;20052;-70
2021/09/03 10:58:29;;;;;;;18.05;5.22;;;28.00;51.20;;;;;;5034543;28;20063;-69
2021/09/03 11:01:19;;;;;;;11.15;4.78;;;28.00;50.60;;;;;;5041216;28;20478;-72
2021/09/03 11:04:11;;;;;;;10.18;5.57;;;28.10;50.60;;;;;;5055105;28;20052;-76
2021/09/03 11:06:57;;;;;;;11.82;4.80;;;28.10;50.80;;;;;;5020698;28;20049;-74
2021/09/03 11:09:28;;;;;;;14.38;5.88;;;28.20;50.80;;;;;;5015727;28;20025;-74
2021/09/03 11:11:58;;;;;;;13.75;5.40;;;28.20;50.50;;;;;;5033185;28;20429;-73
2021/09/03 11:14:29;;;;;;;14.23;5.35;;;28.20;50.40;;;;;;5017195;28;20064;-70
2021/09/03 11:17:05;;;;;;;15.45;5.80;;;28.30;50.40;;;;;;5049863;23;20469;-69
2021/09/03 11:19:32;;;;;;;10.75;5.18;;;28.30;50.40;;;;;;5033816;28;20033;-70
2021/09/03 11:22:22;;;;;;;13.85;5.00;;;28.30;50.60;;;;;;5016700;28;20486;-69
2021/09/03 11:25:03;;;;;;;21.27;5.55;;;28.30;50.70;;;;;;5038948;28;20055;-70
2021/09/03 11:27:30;;;;;;;11.98;5.10;;;28.30;50.70;;;;;;5053391;28;20131;-70
2021/09/03 11:30:01;;;;;;;18.25;5.38;;;28.30;51.00;;;;;;5053832;28;20028;-70
2021/09/03 11:32:31;;;;;;;11.70;4.82;;;28.40;51.00;;;;;;5053873;28;20451;-69
2021/09/03 11:35:02;;;;;;;15.23;5.20;;;28.40;50.60;;;;;;5052937;28;20014;-66
2021/09/03 11:38:13;;;;;;;15.38;5.72;;;28.50;50.80;;;;;;5053023;28;20055;-71
2021/09/03 11:40:39;;;;;;;15.30;5.38;;;28.50;50.80;;;;;;4953165;28;20027;-69
2021/09/03 11:43:06;;;;;;;15.90;5.20;;;28.60;51.00;;;;;;5038712;28;20060;-72
2021/09/03 11:45:34;;;;;;;11.55;5.50;;;28.60;51.10;;;;;;5052415;28;20071;-70
2021/09/03 11:48:00;;;;;;;10.45;4.68;;;28.60;51.00;;;;;;5052901;28;20450;-71
2021/09/03 11:50:30;;;;;;;15.10;5.43;;;28.60;51.00;;;;;;5052798;28;20036;-69
2021/09/03 11:52:58;;;;;;;14.30;5.45;;;28.70;50.70;;;;;;5052615;28;20086;-70
2021/09/03 11:55:25;;;;;;;14.13;4.93;;;28.70;50.80;;;;;;5052406;28;20016;-68
2021/09/03 11:58:03;;;;;;;18.40;5.32;;;28.60;50.60;;;;;;5052814;28;20040;-70
2021/09/03 12:00:37;;;;;;;21.38;5.63;;;28.60;50.30;;;;;;5050216;28;20027;-70
2021/09/03 12:03:18;;;;;;;10.65;4.55;;;28.70;50.40;;;;;;5032785;28;20053;-72
2021/09/03 12:05:52;;;;;;;10.00;4.57;;;28.70;50.40;;;;;;5032583;28;20037;-73
2021/09/03 12:08:26;;;;;;;11.90;5.35;;;28.70;50.30;;;;;;5038994;28;20021;-71
2021/09/03 12:11:02;;;;;;;11.30;4.82;;;28.80;50.10;;;;;;5052723;28;20155;-71
2021/09/03 12:13:42;;;;;;;12.02;5.45;;;28.90;50.00;;;;;;5052207;28;20041;-69
2021/09/03 12:16:14;;;;;;;11.80;4.63;;;29.00;49.80;;;;;;5052355;28;20033;-70
2021/09/03 12:18:42;;;;;;;12.00;4.82;;;29.10;50.00;;;;;;5051959;28;20029;-68
2021/09/03 12:21:11;;;;;;;12.18;5.43;;;29.00;50.10;;;;;;5052357;28;20471;-69
2021/09/03 12:23:40;;;;;;;15.55;5.07;;;28.90;49.80;;;;;;5051771;28;20174;-70
2021/09/03 12:26:15;;;;;;;17.20;4.63;;;28.90;50.20;;;;;;5052092;28;20025;-69
2021/09/03 12:28:46;;;;;;;13.15;4.80;;;28.90;50.30;;;;;;5052336;28;20044;-68
2021/09/03 12:31:26;;;;;;;12.48;4.60;;;29.00;49.90;;;;;;5052923;28;20051;-70
2021/09/03 12:34:00;;;;;;;10.90;4.30;;;29.10;50.30;;;;;;5052823;28;20037;-68
2021/09/03 12:36:27;;;;;;;;;;;29.20;50.20;;;;;;5054252;28;20021;-70
2021/09/03 12:38:56;;;;;;;10.27;4.43;;;29.20;49.90;;;;;;5053135;28;19909;-70
2021/09/03 12:41:29;;;;;;;12.02;4.25;;;29.20;50.20;;;;;;5055600;28;20036;-70
2021/09/03 12:44:09;;;;;;;14.52;4.57;;;29.30;50.50;;;;;;5055745;28;20029;-71
2021/09/03 12:46:37;;;;;;;9.75;4.35;;;29.40;48.40;;;;;;5056004;28;20052;-69
2021/09/03 12:49:06;;;;;;;8.40;4.40;;;29.40;49.70;;;;;;5054868;28;20358;-68